This is the latest recevied weather packets stored in our database for station/object KE8KMM. If no packets are shown the sender has not sent any weather packets the latest 10 day(s).
| Time | Temp. | Humidity | Pressure | Rain* | Wind** | Luminosity | Snow |
|---|---|---|---|---|---|---|---|
| 1777900750 | 15.56° C | 64% | 1009 hPa | 0 mm | - | 356 W/m² | - |
| 1777900447 | 15° C | 64% | 1009.2 hPa | 0 mm | - | 315 W/m² | - |
| 1777900144 | 14.44° C | 64% | 1009.2 hPa | 0 mm | - | 319 W/m² | - |
| 1777899841 | 13.89° C | 66% | 1009.1 hPa | 0 mm | - | 313 W/m² | - |
| 1777899538 | 13.33° C | 68% | 1009.1 hPa | 0 mm | - | 290 W/m² | - |
| 1777899235 | 13.89° C | 66% | 1009.3 hPa | 0 mm | - | 267 W/m² | - |
| 1777898932 | 13.89° C | 69% | 1009.2 hPa | 0 mm | - | 261 W/m² | - |
| 1777898630 | 13.33° C | 65% | 1009.2 hPa | 0 mm | - | 237 W/m² | - |
| 1777898327 | 13.33° C | 68% | 1009.1 hPa | 0 mm | - | 227 W/m² | - |
| 1777898024 | 12.78° C | 68% | 1009.3 hPa | 0 mm | - | 207 W/m² | - |
| 1777897720 | 12.78° C | 69% | 1009.2 hPa | 0 mm | - | 200 W/m² | - |
| 1777897417 | 12.22° C | 68% | 1009.2 hPa | 0 mm | - | 167 W/m² | - |
| 1777897113 | 12.22° C | 68% | 1009.3 hPa | 0 mm | - | 161 W/m² | - |
| 1777896809 | 12.22° C | 68% | 1009.3 hPa | 0 mm | - | 155 W/m² | - |
| 1777896507 | 11.67° C | 70% | 1009.1 hPa | 0 mm | - | 137 W/m² | - |
| 1777896204 | 11.67° C | 70% | 1009.2 hPa | 0 mm | - | 124 W/m² | - |
| 1777895902 | 11.11° C | 72% | 1009 hPa | 0 mm | - | 112 W/m² | - |
| 1777895599 | 10.56° C | 72% | 1009 hPa | 0 mm | - | 56 W/m² | - |
| 1777895296 | 10.56° C | 73% | 1009 hPa | 0 mm | - | 44 W/m² | - |
| 1777894994 | 10.56° C | 73% | 1009.1 hPa | 0 mm | - | 44 W/m² | - |
| 1777894691 | 10° C | 73% | 1009.2 hPa | 0 mm | - | 44 W/m² | - |
| 1777894387 | 10° C | 74% | 1008.9 hPa | 0 mm | - | 38 W/m² | - |
| 1777894085 | 9.44° C | 74% | 1009.1 hPa | 0 mm | - | 35 W/m² | - |
| 1777893782 | 9.44° C | 75% | 1009 hPa | 0 mm | - | 32 W/m² | - |
| 1777893478 | 8.89° C | 75% | 1009 hPa | 0 mm | - | 31 W/m² | - |
* Rain latest hour (hover to see other rain measurements)
** Current wind speed in m/s (hover to see current wind gust speed)